sensor_id;sensor_type;location;lat;lon;timestamp;P1;durP1;ratioP1;P2;durP2;ratioP2
71771;SDS011;59606;52.138;5.424;2023-12-07T00:00:10;15.23;;;6.07;;
71771;SDS011;59606;52.138;5.424;2023-12-07T00:02:37;20.55;;;7.35;;
71771;SDS011;59606;52.138;5.424;2023-12-07T00:05:04;45.55;;;13.55;;
71771;SDS011;59606;52.138;5.424;2023-12-07T00:07:30;37.33;;;11.70;;
71771;SDS011;59606;52.138;5.424;2023-12-07T00:09:57;36.97;;;12.00;;
71771;SDS011;59606;52.138;5.424;2023-12-07T00:12:24;27.33;;;10.60;;
71771;SDS011;59606;52.138;5.424;2023-12-07T00:14:51;28.67;;;10.70;;
71771;SDS011;59606;52.138;5.424;2023-12-07T00:17:17;30.17;;;9.65;;
71771;SDS011;59606;52.138;5.424;2023-12-07T00:19:44;28.58;;;9.73;;
71771;SDS011;59606;52.138;5.424;2023-12-07T00:22:10;23.35;;;8.23;;
71771;SDS011;59606;52.138;5.424;2023-12-07T00:24:37;20.10;;;6.63;;
71771;SDS011;59606;52.138;5.424;2023-12-07T00:27:03;14.63;;;6.80;;
71771;SDS011;59606;52.138;5.424;2023-12-07T00:29:31;13.13;;;6.55;;
71771;SDS011;59606;52.138;5.424;2023-12-07T00:31:58;19.40;;;6.78;;
71771;SDS011;59606;52.138;5.424;2023-12-07T00:34:24;16.27;;;6.22;;
71771;SDS011;59606;52.138;5.424;2023-12-07T00:36:51;15.47;;;6.63;;
71771;SDS011;59606;52.138;5.424;2023-12-07T00:39:17;13.73;;;6.55;;
71771;SDS011;59606;52.138;5.424;2023-12-07T00:41:44;14.98;;;5.97;;
71771;SDS011;59606;52.138;5.424;2023-12-07T00:44:13;14.68;;;5.88;;
71771;SDS011;59606;52.138;5.424;2023-12-07T00:46:40;18.25;;;5.80;;
71771;SDS011;59606;52.138;5.424;2023-12-07T00:49:10;12.53;;;5.43;;
71771;SDS011;59606;52.138;5.424;2023-12-07T00:51:36;13.38;;;5.78;;
71771;SDS011;59606;52.138;5.424;2023-12-07T00:54:03;11.85;;;5.28;;
71771;SDS011;59606;52.138;5.424;2023-12-07T00:56:30;13.95;;;5.97;;
71771;SDS011;59606;52.138;5.424;2023-12-07T00:58:56;12.10;;;5.53;;
71771;SDS011;59606;52.138;5.424;2023-12-07T01:01:23;14.80;;;5.10;;
71771;SDS011;59606;52.138;5.424;2023-12-07T01:03:49;20.88;;;7.10;;
71771;SDS011;59606;52.138;5.424;2023-12-07T01:06:16;24.60;;;9.30;;
71771;SDS011;59606;52.138;5.424;2023-12-07T01:08:42;23.33;;;8.15;;
71771;SDS011;59606;52.138;5.424;2023-12-07T01:11:09;17.42;;;7.25;;
71771;SDS011;59606;52.138;5.424;2023-12-07T01:13:35;16.40;;;5.90;;
71771;SDS011;59606;52.138;5.424;2023-12-07T01:16:02;16.48;;;6.75;;
71771;SDS011;59606;52.138;5.424;2023-12-07T01:18:29;15.07;;;5.82;;
71771;SDS011;59606;52.138;5.424;2023-12-07T01:20:55;10.75;;;5.13;;
71771;SDS011;59606;52.138;5.424;2023-12-07T01:23:22;15.55;;;5.97;;
71771;SDS011;59606;52.138;5.424;2023-12-07T01:25:48;14.33;;;5.47;;
71771;SDS011;59606;52.138;5.424;2023-12-07T01:28:15;17.48;;;6.22;;
71771;SDS011;59606;52.138;5.424;2023-12-07T01:30:42;15.02;;;5.78;;
71771;SDS011;59606;52.138;5.424;2023-12-07T01:33:08;11.65;;;4.72;;
71771;SDS011;59606;52.138;5.424;2023-12-07T01:35:35;13.55;;;4.75;;
71771;SDS011;59606;52.138;5.424;2023-12-07T01:38:02;13.23;;;5.50;;
71771;SDS011;59606;52.138;5.424;2023-12-07T01:40:28;9.77;;;4.72;;
71771;SDS011;59606;52.138;5.424;2023-12-07T01:42:55;10.93;;;4.95;;
71771;SDS011;59606;52.138;5.424;2023-12-07T01:45:22;12.68;;;5.43;;
71771;SDS011;59606;52.138;5.424;2023-12-07T01:47:49;10.38;;;4.45;;
71771;SDS011;59606;52.138;5.424;2023-12-07T01:50:17;10.97;;;4.77;;
71771;SDS011;59606;52.138;5.424;2023-12-07T01:52:51;12.35;;;5.53;;
71771;SDS011;59606;52.138;5.424;2023-12-07T01:55:20;11.38;;;5.60;;
71771;SDS011;59606;52.138;5.424;2023-12-07T01:57:48;10.18;;;5.28;;
71771;SDS011;59606;52.138;5.424;2023-12-07T02:00:16;11.48;;;4.70;;
71771;SDS011;59606;52.138;5.424;2023-12-07T02:02:44;12.67;;;5.17;;
71771;SDS011;59606;52.138;5.424;2023-12-07T02:05:12;15.88;;;5.72;;
71771;SDS011;59606;52.138;5.424;2023-12-07T02:07:42;12.75;;;5.20;;
71771;SDS011;59606;52.138;5.424;2023-12-07T02:10:10;11.57;;;4.88;;
71771;SDS011;59606;52.138;5.424;2023-12-07T02:12:37;11.80;;;5.28;;
71771;SDS011;59606;52.138;5.424;2023-12-07T02:15:03;12.03;;;5.40;;
71771;SDS011;59606;52.138;5.424;2023-12-07T02:22:59;19.98;;;6.78;;
71771;SDS011;59606;52.138;5.424;2023-12-07T02:26:02;18.13;;;6.28;;
71771;SDS011;59606;52.138;5.424;2023-12-07T02:28:23;19.03;;;6.97;;
71771;SDS011;59606;52.138;5.424;2023-12-07T02:30:50;13.32;;;5.70;;
71771;SDS011;59606;52.138;5.424;2023-12-07T02:33:17;15.07;;;6.40;;
71771;SDS011;59606;52.138;5.424;2023-12-07T02:35:44;11.13;;;4.78;;
71771;SDS011;59606;52.138;5.424;2023-12-07T02:38:10;9.85;;;5.10;;
71771;SDS011;59606;52.138;5.424;2023-12-07T02:40:38;11.00;;;5.60;;
71771;SDS011;59606;52.138;5.424;2023-12-07T02:43:09;10.80;;;4.90;;
71771;SDS011;59606;52.138;5.424;2023-12-07T02:45:36;12.20;;;6.07;;
71771;SDS011;59606;52.138;5.424;2023-12-07T02:48:03;11.00;;;5.80;;
71771;SDS011;59606;52.138;5.424;2023-12-07T02:50:30;14.93;;;5.93;;
71771;SDS011;59606;52.138;5.424;2023-12-07T02:52:56;17.67;;;6.17;;
71771;SDS011;59606;52.138;5.424;2023-12-07T02:55:23;13.20;;;4.93;;
71771;SDS011;59606;52.138;5.424;2023-12-07T02:57:50;12.07;;;5.00;;
71771;SDS011;59606;52.138;5.424;2023-12-07T03:00:17;12.70;;;5.30;;
71771;SDS011;59606;52.138;5.424;2023-12-07T03:02:44;19.42;;;5.50;;
71771;SDS011;59606;52.138;5.424;2023-12-07T03:05:11;10.33;;;4.70;;
71771;SDS011;59606;52.138;5.424;2023-12-07T03:07:37;13.07;;;5.32;;
71771;SDS011;59606;52.138;5.424;2023-12-07T03:10:04;12.45;;;5.38;;
71771;SDS011;59606;52.138;5.424;2023-12-07T03:12:31;11.23;;;5.60;;
71771;SDS011;59606;52.138;5.424;2023-12-07T03:14:58;11.90;;;4.72;;
71771;SDS011;59606;52.138;5.424;2023-12-07T03:17:24;10.57;;;5.50;;
71771;SDS011;59606;52.138;5.424;2023-12-07T03:19:51;13.20;;;5.55;;
71771;SDS011;59606;52.138;5.424;2023-12-07T03:22:17;11.02;;;5.30;;
71771;SDS011;59606;52.138;5.424;2023-12-07T03:24:46;17.15;;;5.57;;
71771;SDS011;59606;52.138;5.424;2023-12-07T03:27:14;11.93;;;5.60;;
71771;SDS011;59606;52.138;5.424;2023-12-07T03:29:41;14.17;;;5.13;;
71771;SDS011;59606;52.138;5.424;2023-12-07T03:32:07;9.68;;;5.13;;
71771;SDS011;59606;52.138;5.424;2023-12-07T03:34:34;10.93;;;4.65;;
71771;SDS011;59606;52.138;5.424;2023-12-07T03:37:00;13.63;;;5.30;;
71771;SDS011;59606;52.138;5.424;2023-12-07T03:39:27;13.48;;;5.60;;
71771;SDS011;59606;52.138;5.424;2023-12-07T03:41:56;10.00;;;5.10;;
71771;SDS011;59606;52.138;5.424;2023-12-07T03:44:22;11.07;;;4.70;;
71771;SDS011;59606;52.138;5.424;2023-12-07T03:46:49;10.02;;;4.93;;
71771;SDS011;59606;52.138;5.424;2023-12-07T03:49:15;12.00;;;4.97;;
71771;SDS011;59606;52.138;5.424;2023-12-07T03:51:42;10.90;;;5.50;;
71771;SDS011;59606;52.138;5.424;2023-12-07T03:54:08;11.50;;;4.93;;
71771;SDS011;59606;52.138;5.424;2023-12-07T03:56:35;10.85;;;5.25;;
71771;SDS011;59606;52.138;5.424;2023-12-07T03:59:01;11.15;;;4.63;;
71771;SDS011;59606;52.138;5.424;2023-12-07T04:01:28;15.93;;;6.32;;
71771;SDS011;59606;52.138;5.424;2023-12-07T04:03:56;11.30;;;4.90;;
71771;SDS011;59606;52.138;5.424;2023-12-07T04:06:23;8.97;;;4.73;;
71771;SDS011;59606;52.138;5.424;2023-12-07T04:08:50;12.65;;;5.50;;
71771;SDS011;59606;52.138;5.424;2023-12-07T04:11:17;11.18;;;5.25;;
71771;SDS011;59606;52.138;5.424;2023-12-07T04:13:44;12.35;;;5.22;;
71771;SDS011;59606;52.138;5.424;2023-12-07T04:16:11;14.85;;;5.88;;
71771;SDS011;59606;52.138;5.424;2023-12-07T04:18:38;12.63;;;5.53;;
71771;SDS011;59606;52.138;5.424;2023-12-07T04:21:04;14.38;;;5.95;;
71771;SDS011;59606;52.138;5.424;2023-12-07T04:23:34;16.77;;;5.95;;
71771;SDS011;59606;52.138;5.424;2023-12-07T04:26:00;11.77;;;5.90;;
71771;SDS011;59606;52.138;5.424;2023-12-07T04:28:27;19.50;;;7.03;;
71771;SDS011;59606;52.138;5.424;2023-12-07T04:30:54;13.43;;;6.13;;
71771;SDS011;59606;52.138;5.424;2023-12-07T04:33:21;13.38;;;6.50;;
71771;SDS011;59606;52.138;5.424;2023-12-07T04:35:48;16.33;;;5.63;;
71771;SDS011;59606;52.138;5.424;2023-12-07T04:38:15;15.15;;;6.45;;
71771;SDS011;59606;52.138;5.424;2023-12-07T04:40:41;14.63;;;6.55;;
71771;SDS011;59606;52.138;5.424;2023-12-07T04:43:08;26.57;;;6.80;;
71771;SDS011;59606;52.138;5.424;2023-12-07T04:45:35;16.67;;;6.93;;
71771;SDS011;59606;52.138;5.424;2023-12-07T04:48:02;26.45;;;6.57;;
71771;SDS011;59606;52.138;5.424;2023-12-07T04:50:30;19.42;;;6.22;;
71771;SDS011;59606;52.138;5.424;2023-12-07T04:52:57;13.95;;;6.22;;
71771;SDS011;59606;52.138;5.424;2023-12-07T04:55:23;15.87;;;5.90;;
71771;SDS011;59606;52.138;5.424;2023-12-07T04:57:50;28.83;;;6.63;;
71771;SDS011;59606;52.138;5.424;2023-12-07T05:00:16;11.25;;;5.63;;
71771;SDS011;59606;52.138;5.424;2023-12-07T05:02:43;28.52;;;6.05;;
71771;SDS011;59606;52.138;5.424;2023-12-07T05:05:10;25.83;;;5.90;;
71771;SDS011;59606;52.138;5.424;2023-12-07T05:07:38;27.27;;;6.70;;
71771;SDS011;59606;52.138;5.424;2023-12-07T05:10:04;10.98;;;5.72;;
71771;SDS011;59606;52.138;5.424;2023-12-07T05:12:31;15.00;;;6.32;;
71771;SDS011;59606;52.138;5.424;2023-12-07T05:14:58;15.70;;;5.90;;
71771;SDS011;59606;52.138;5.424;2023-12-07T05:17:25;14.45;;;6.30;;
71771;SDS011;59606;52.138;5.424;2023-12-07T05:19:51;14.33;;;6.23;;
71771;SDS011;59606;52.138;5.424;2023-12-07T05:22:18;13.30;;;5.65;;
71771;SDS011;59606;52.138;5.424;2023-12-07T05:24:44;15.60;;;5.50;;
71771;SDS011;59606;52.138;5.424;2023-12-07T05:27:11;20.30;;;6.18;;
71771;SDS011;59606;52.138;5.424;2023-12-07T05:29:38;12.05;;;6.00;;
71771;SDS011;59606;52.138;5.424;2023-12-07T05:32:05;15.07;;;6.87;;
71771;SDS011;59606;52.138;5.424;2023-12-07T05:34:32;13.85;;;5.85;;
71771;SDS011;59606;52.138;5.424;2023-12-07T05:37:00;24.88;;;6.82;;
71771;SDS011;59606;52.138;5.424;2023-12-07T05:39:26;27.00;;;6.05;;
71771;SDS011;59606;52.138;5.424;2023-12-07T05:41:53;11.32;;;6.00;;
71771;SDS011;59606;52.138;5.424;2023-12-07T05:44:19;36.13;;;7.00;;
71771;SDS011;59606;52.138;5.424;2023-12-07T05:46:48;20.67;;;5.35;;
71771;SDS011;59606;52.138;5.424;2023-12-07T05:49:15;10.85;;;5.97;;
71771;SDS011;59606;52.138;5.424;2023-12-07T05:51:42;28.85;;;6.85;;
71771;SDS011;59606;52.138;5.424;2023-12-07T05:54:09;34.40;;;6.05;;
71771;SDS011;59606;52.138;5.424;2023-12-07T05:56:36;23.03;;;6.90;;
71771;SDS011;59606;52.138;5.424;2023-12-07T05:59:03;25.98;;;7.00;;
71771;SDS011;59606;52.138;5.424;2023-12-07T06:01:29;29.17;;;7.45;;
71771;SDS011;59606;52.138;5.424;2023-12-07T06:03:56;16.15;;;6.50;;
71771;SDS011;59606;52.138;5.424;2023-12-07T06:06:23;30.02;;;7.43;;
71771;SDS011;59606;52.138;5.424;2023-12-07T06:08:50;26.23;;;6.80;;
71771;SDS011;59606;52.138;5.424;2023-12-07T06:11:16;23.33;;;6.53;;
71771;SDS011;59606;52.138;5.424;2023-12-07T06:13:43;37.85;;;7.35;;
71771;SDS011;59606;52.138;5.424;2023-12-07T06:16:12;38.40;;;8.73;;
71771;SDS011;59606;52.138;5.424;2023-12-07T06:18:43;35.17;;;7.75;;
71771;SDS011;59606;52.138;5.424;2023-12-07T06:21:13;28.53;;;7.07;;
71771;SDS011;59606;52.138;5.424;2023-12-07T06:23:40;24.77;;;7.82;;
71771;SDS011;59606;52.138;5.424;2023-12-07T06:26:08;58.25;;;8.35;;
71771;SDS011;59606;52.138;5.424;2023-12-07T06:28:36;20.77;;;6.95;;
71771;SDS011;59606;52.138;5.424;2023-12-07T06:31:06;14.00;;;6.25;;
71771;SDS011;59606;52.138;5.424;2023-12-07T06:33:33;18.83;;;7.37;;
71771;SDS011;59606;52.138;5.424;2023-12-07T06:36:01;48.78;;;8.60;;
71771;SDS011;59606;52.138;5.424;2023-12-07T06:38:29;57.05;;;9.70;;
71771;SDS011;59606;52.138;5.424;2023-12-07T06:40:56;47.45;;;8.23;;
71771;SDS011;59606;52.138;5.424;2023-12-07T06:43:22;27.10;;;7.65;;
71771;SDS011;59606;52.138;5.424;2023-12-07T06:45:49;22.00;;;8.20;;
71771;SDS011;59606;52.138;5.424;2023-12-07T06:48:23;29.10;;;8.88;;
71771;SDS011;59606;52.138;5.424;2023-12-07T06:50:50;34.90;;;8.43;;
71771;SDS011;59606;52.138;5.424;2023-12-07T06:53:16;70.05;;;8.35;;
71771;SDS011;59606;52.138;5.424;2023-12-07T06:55:44;41.08;;;9.05;;
71771;SDS011;59606;52.138;5.424;2023-12-07T06:58:11;46.07;;;8.93;;
71771;SDS011;59606;52.138;5.424;2023-12-07T07:00:38;63.13;;;9.85;;
71771;SDS011;59606;52.138;5.424;2023-12-07T07:03:04;46.45;;;8.40;;
71771;SDS011;59606;52.138;5.424;2023-12-07T07:05:32;25.85;;;8.05;;
71771;SDS011;59606;52.138;5.424;2023-12-07T07:07:59;24.27;;;7.25;;
71771;SDS011;59606;52.138;5.424;2023-12-07T07:10:25;38.20;;;8.77;;
71771;SDS011;59606;52.138;5.424;2023-12-07T07:12:52;23.85;;;8.05;;
71771;SDS011;59606;52.138;5.424;2023-12-07T07:15:18;24.27;;;7.78;;
71771;SDS011;59606;52.138;5.424;2023-12-07T07:17:46;38.00;;;8.45;;
71771;SDS011;59606;52.138;5.424;2023-12-07T07:20:12;58.85;;;9.73;;
71771;SDS011;59606;52.138;5.424;2023-12-07T07:22:39;30.80;;;8.13;;
71771;SDS011;59606;52.138;5.424;2023-12-07T07:25:07;36.47;;;9.05;;
71771;SDS011;59606;52.138;5.424;2023-12-07T07:27:34;34.00;;;8.48;;
71771;SDS011;59606;52.138;5.424;2023-12-07T07:30:01;29.83;;;9.15;;
71771;SDS011;59606;52.138;5.424;2023-12-07T07:32:30;28.75;;;9.23;;
71771;SDS011;59606;52.138;5.424;2023-12-07T07:34:57;34.93;;;8.50;;
71771;SDS011;59606;52.138;5.424;2023-12-07T07:37:24;21.98;;;8.73;;
71771;SDS011;59606;52.138;5.424;2023-12-07T07:39:51;26.98;;;8.35;;
71771;SDS011;59606;52.138;5.424;2023-12-07T07:42:17;26.30;;;8.23;;
71771;SDS011;59606;52.138;5.424;2023-12-07T07:44:44;31.48;;;8.90;;
71771;SDS011;59606;52.138;5.424;2023-12-07T07:47:11;19.70;;;8.10;;
71771;SDS011;59606;52.138;5.424;2023-12-07T07:49:37;41.35;;;7.88;;
71771;SDS011;59606;52.138;5.424;2023-12-07T07:52:04;25.70;;;7.80;;
71771;SDS011;59606;52.138;5.424;2023-12-07T07:54:31;49.55;;;9.05;;
71771;SDS011;59606;52.138;5.424;2023-12-07T07:56:58;33.97;;;9.75;;
71771;SDS011;59606;52.138;5.424;2023-12-07T07:59:24;19.17;;;9.60;;
71771;SDS011;59606;52.138;5.424;2023-12-07T08:01:50;39.97;;;9.50;;
71771;SDS011;59606;52.138;5.424;2023-12-07T08:04:17;37.60;;;7.90;;
71771;SDS011;59606;52.138;5.424;2023-12-07T08:06:44;33.60;;;8.95;;
71771;SDS011;59606;52.138;5.424;2023-12-07T08:09:11;34.03;;;9.35;;
71771;SDS011;59606;52.138;5.424;2023-12-07T08:11:38;40.67;;;8.00;;
71771;SDS011;59606;52.138;5.424;2023-12-07T08:14:04;50.70;;;7.30;;
71771;SDS011;59606;52.138;5.424;2023-12-07T08:16:31;38.00;;;6.57;;
71771;SDS011;59606;52.138;5.424;2023-12-07T08:18:58;32.17;;;7.35;;
71771;SDS011;59606;52.138;5.424;2023-12-07T08:21:25;29.33;;;7.95;;
71771;SDS011;59606;52.138;5.424;2023-12-07T08:23:56;25.50;;;7.63;;
71771;SDS011;59606;52.138;5.424;2023-12-07T08:26:23;58.88;;;9.75;;
71771;SDS011;59606;52.138;5.424;2023-12-07T08:28:49;38.33;;;8.98;;
71771;SDS011;59606;52.138;5.424;2023-12-07T08:31:16;48.20;;;8.43;;
71771;SDS011;59606;52.138;5.424;2023-12-07T08:33:44;54.58;;;8.88;;
71771;SDS011;59606;52.138;5.424;2023-12-07T08:36:10;29.53;;;7.93;;
71771;SDS011;59606;52.138;5.424;2023-12-07T08:38:37;18.35;;;6.40;;
71771;SDS011;59606;52.138;5.424;2023-12-07T08:41:03;25.08;;;8.00;;
71771;SDS011;59606;52.138;5.424;2023-12-07T08:43:30;26.25;;;8.52;;
71771;SDS011;59606;52.138;5.424;2023-12-07T08:45:57;37.35;;;8.55;;
71771;SDS011;59606;52.138;5.424;2023-12-07T08:48:27;41.50;;;9.63;;
71771;SDS011;59606;52.138;5.424;2023-12-07T08:50:54;26.95;;;8.85;;
71771;SDS011;59606;52.138;5.424;2023-12-07T08:53:20;31.92;;;8.45;;
71771;SDS011;59606;52.138;5.424;2023-12-07T08:55:47;40.88;;;8.23;;
71771;SDS011;59606;52.138;5.424;2023-12-07T08:58:14;43.47;;;7.18;;
71771;SDS011;59606;52.138;5.424;2023-12-07T09:00:40;48.30;;;8.80;;
71771;SDS011;59606;52.138;5.424;2023-12-07T09:03:09;25.63;;;8.00;;
71771;SDS011;59606;52.138;5.424;2023-12-07T09:05:36;27.50;;;9.10;;
71771;SDS011;59606;52.138;5.424;2023-12-07T09:08:03;50.72;;;9.68;;
71771;SDS011;59606;52.138;5.424;2023-12-07T09:10:30;38.72;;;9.68;;
71771;SDS011;59606;52.138;5.424;2023-12-07T09:12:56;38.13;;;9.73;;
71771;SDS011;59606;52.138;5.424;2023-12-07T09:15:23;31.65;;;8.90;;
71771;SDS011;59606;52.138;5.424;2023-12-07T09:17:49;24.30;;;8.90;;
71771;SDS011;59606;52.138;5.424;2023-12-07T09:20:16;33.65;;;7.75;;
71771;SDS011;59606;52.138;5.424;2023-12-07T09:22:43;31.77;;;7.22;;
71771;SDS011;59606;52.138;5.424;2023-12-07T09:25:11;33.13;;;8.60;;
71771;SDS011;59606;52.138;5.424;2023-12-07T09:27:38;19.00;;;6.82;;
71771;SDS011;59606;52.138;5.424;2023-12-07T09:30:06;24.25;;;8.27;;
71771;SDS011;59606;52.138;5.424;2023-12-07T09:32:37;18.90;;;6.53;;
71771;SDS011;59606;52.138;5.424;2023-12-07T09:35:05;22.77;;;8.40;;
71771;SDS011;59606;52.138;5.424;2023-12-07T09:37:33;31.20;;;8.43;;
71771;SDS011;59606;52.138;5.424;2023-12-07T09:40:01;27.88;;;7.75;;
71771;SDS011;59606;52.138;5.424;2023-12-07T09:42:31;24.92;;;6.95;;
71771;SDS011;59606;52.138;5.424;2023-12-07T09:45:02;20.30;;;8.07;;
71771;SDS011;59606;52.138;5.424;2023-12-07T09:47:31;30.33;;;9.60;;
71771;SDS011;59606;52.138;5.424;2023-12-07T09:50:03;19.10;;;8.03;;
71771;SDS011;59606;52.138;5.424;2023-12-07T09:52:32;23.70;;;8.20;;
71771;SDS011;59606;52.138;5.424;2023-12-07T09:54:58;15.20;;;6.10;;
71771;SDS011;59606;52.138;5.424;2023-12-07T09:57:25;14.18;;;6.18;;
71771;SDS011;59606;52.138;5.424;2023-12-07T09:59:56;20.13;;;5.93;;
71771;SDS011;59606;52.138;5.424;2023-12-07T10:02:23;18.53;;;6.50;;
71771;SDS011;59606;52.138;5.424;2023-12-07T10:05:06;25.92;;;5.63;;
71771;SDS011;59606;52.138;5.424;2023-12-07T10:07:34;20.83;;;5.30;;
71771;SDS011;59606;52.138;5.424;2023-12-07T10:10:03;17.40;;;5.80;;
71771;SDS011;59606;52.138;5.424;2023-12-07T10:12:31;19.90;;;5.32;;
71771;SDS011;59606;52.138;5.424;2023-12-07T10:15:00;17.63;;;5.37;;
71771;SDS011;59606;52.138;5.424;2023-12-07T10:18:03;12.93;;;5.18;;
71771;SDS011;59606;52.138;5.424;2023-12-07T10:20:27;18.00;;;5.43;;
71771;SDS011;59606;52.138;5.424;2023-12-07T10:25:40;12.23;;;5.10;;
71771;SDS011;59606;52.138;5.424;2023-12-07T10:28:09;16.87;;;4.80;;
71771;SDS011;59606;52.138;5.424;2023-12-07T10:30:40;20.33;;;6.03;;
71771;SDS011;59606;52.138;5.424;2023-12-07T10:33:09;15.63;;;4.93;;
71771;SDS011;59606;52.138;5.424;2023-12-07T10:35:39;13.18;;;5.28;;
71771;SDS011;59606;52.138;5.424;2023-12-07T10:38:07;22.10;;;5.35;;
71771;SDS011;59606;52.138;5.424;2023-12-07T10:40:38;19.03;;;5.47;;
71771;SDS011;59606;52.138;5.424;2023-12-07T10:43:05;17.35;;;5.93;;
71771;SDS011;59606;52.138;5.424;2023-12-07T10:45:34;17.50;;;4.45;;
71771;SDS011;59606;52.138;5.424;2023-12-07T10:48:06;11.88;;;4.78;;
71771;SDS011;59606;52.138;5.424;2023-12-07T10:50:35;16.70;;;6.43;;
71771;SDS011;59606;52.138;5.424;2023-12-07T10:53:11;23.60;;;5.83;;
71771;SDS011;59606;52.138;5.424;2023-12-07T10:55:55;14.15;;;5.78;;
71771;SDS011;59606;52.138;5.424;2023-12-07T10:58:23;13.65;;;5.20;;
71771;SDS011;59606;52.138;5.424;2023-12-07T11:00:56;14.98;;;5.13;;
71771;SDS011;59606;52.138;5.424;2023-12-07T11:03:25;17.38;;;5.20;;
71771;SDS011;59606;52.138;5.424;2023-12-07T11:05:52;12.87;;;5.30;;
71771;SDS011;59606;52.138;5.424;2023-12-07T11:14:13;15.27;;;5.55;;
71771;SDS011;59606;52.138;5.424;2023-12-07T11:16:44;11.38;;;4.63;;
71771;SDS011;59606;52.138;5.424;2023-12-07T11:22:05;11.38;;;5.22;;
71771;SDS011;59606;52.138;5.424;2023-12-07T11:24:33;25.13;;;6.03;;
71771;SDS011;59606;52.138;5.424;2023-12-07T11:27:01;11.05;;;5.13;;
71771;SDS011;59606;52.138;5.424;2023-12-07T11:29:28;13.18;;;5.65;;
71771;SDS011;59606;52.138;5.424;2023-12-07T11:32:02;14.60;;;4.97;;
71771;SDS011;59606;52.138;5.424;2023-12-07T11:34:46;10.85;;;4.60;;
71771;SDS011;59606;52.138;5.424;2023-12-07T11:37:16;11.88;;;5.30;;
71771;SDS011;59606;52.138;5.424;2023-12-07T11:39:46;13.43;;;5.18;;
71771;SDS011;59606;52.138;5.424;2023-12-07T11:42:17;15.82;;;5.70;;
71771;SDS011;59606;52.138;5.424;2023-12-07T11:44:48;16.50;;;5.10;;
71771;SDS011;59606;52.138;5.424;2023-12-07T11:47:18;11.77;;;4.70;;
71771;SDS011;59606;52.138;5.424;2023-12-07T11:49:47;19.13;;;6.32;;
71771;SDS011;59606;52.138;5.424;2023-12-07T11:52:18;34.65;;;9.25;;
71771;SDS011;59606;52.138;5.424;2023-12-07T11:54:46;23.25;;;6.25;;
71771;SDS011;59606;52.138;5.424;2023-12-07T11:57:13;15.60;;;5.50;;
71771;SDS011;59606;52.138;5.424;2023-12-07T11:59:41;22.33;;;6.88;;
71771;SDS011;59606;52.138;5.424;2023-12-07T12:02:11;18.73;;;5.90;;
71771;SDS011;59606;52.138;5.424;2023-12-07T12:04:39;19.60;;;7.15;;
71771;SDS011;59606;52.138;5.424;2023-12-07T12:07:07;18.88;;;6.82;;
71771;SDS011;59606;52.138;5.424;2023-12-07T12:09:34;20.60;;;7.10;;
71771;SDS011;59606;52.138;5.424;2023-12-07T12:12:01;36.45;;;7.25;;
71771;SDS011;59606;52.138;5.424;2023-12-07T12:14:28;24.52;;;7.10;;
71771;SDS011;59606;52.138;5.424;2023-12-07T12:16:55;18.95;;;5.40;;
71771;SDS011;59606;52.138;5.424;2023-12-07T12:19:23;22.77;;;7.78;;
71771;SDS011;59606;52.138;5.424;2023-12-07T12:22:02;17.23;;;7.00;;
71771;SDS011;59606;52.138;5.424;2023-12-07T12:24:33;21.80;;;6.90;;
71771;SDS011;59606;52.138;5.424;2023-12-07T12:27:01;15.82;;;6.18;;
71771;SDS011;59606;52.138;5.424;2023-12-07T12:29:29;20.08;;;6.95;;
71771;SDS011;59606;52.138;5.424;2023-12-07T12:32:01;19.23;;;7.65;;
71771;SDS011;59606;52.138;5.424;2023-12-07T12:34:32;21.87;;;8.73;;
71771;SDS011;59606;52.138;5.424;2023-12-07T12:37:01;25.23;;;8.57;;
71771;SDS011;59606;52.138;5.424;2023-12-07T12:39:28;20.85;;;7.70;;
71771;SDS011;59606;52.138;5.424;2023-12-07T12:41:59;21.40;;;7.28;;
71771;SDS011;59606;52.138;5.424;2023-12-07T12:44:27;22.27;;;6.97;;
71771;SDS011;59606;52.138;5.424;2023-12-07T12:47:04;20.80;;;6.73;;
71771;SDS011;59606;52.138;5.424;2023-12-07T12:49:35;19.25;;;6.68;;
71771;SDS011;59606;52.138;5.424;2023-12-07T12:52:11;21.48;;;8.52;;
71771;SDS011;59606;52.138;5.424;2023-12-07T12:54:39;24.73;;;9.18;;
71771;SDS011;59606;52.138;5.424;2023-12-07T12:57:08;22.70;;;7.93;;
71771;SDS011;59606;52.138;5.424;2023-12-07T12:59:35;21.70;;;8.33;;
71771;SDS011;59606;52.138;5.424;2023-12-07T13:02:02;19.42;;;7.95;;
71771;SDS011;59606;52.138;5.424;2023-12-07T13:04:30;20.77;;;8.55;;
71771;SDS011;59606;52.138;5.424;2023-12-07T13:07:07;20.38;;;8.15;;
71771;SDS011;59606;52.138;5.424;2023-12-07T13:09:34;24.63;;;8.43;;
71771;SDS011;59606;52.138;5.424;2023-12-07T13:12:01;22.80;;;9.43;;
71771;SDS011;59606;52.138;5.424;2023-12-07T13:14:31;25.77;;;9.70;;
71771;SDS011;59606;52.138;5.424;2023-12-07T13:17:02;26.27;;;10.30;;
71771;SDS011;59606;52.138;5.424;2023-12-07T13:19:30;24.67;;;10.82;;
71771;SDS011;59606;52.138;5.424;2023-12-07T13:21:58;25.60;;;10.20;;
71771;SDS011;59606;52.138;5.424;2023-12-07T13:24:26;26.53;;;10.03;;
71771;SDS011;59606;52.138;5.424;2023-12-07T13:26:53;22.67;;;9.15;;
71771;SDS011;59606;52.138;5.424;2023-12-07T13:29:19;19.17;;;8.27;;
71771;SDS011;59606;52.138;5.424;2023-12-07T13:32:00;22.38;;;8.40;;
71771;SDS011;59606;52.138;5.424;2023-12-07T13:34:27;21.77;;;8.27;;
71771;SDS011;59606;52.138;5.424;2023-12-07T13:36:54;19.50;;;7.50;;
71771;SDS011;59606;52.138;5.424;2023-12-07T13:39:21;25.83;;;10.02;;
71771;SDS011;59606;52.138;5.424;2023-12-07T13:41:56;26.90;;;10.43;;
71771;SDS011;59606;52.138;5.424;2023-12-07T13:44:25;20.77;;;8.80;;
71771;SDS011;59606;52.138;5.424;2023-12-07T13:46:54;26.40;;;9.55;;
71771;SDS011;59606;52.138;5.424;2023-12-07T13:49:23;22.80;;;9.10;;
71771;SDS011;59606;52.138;5.424;2023-12-07T13:51:59;20.00;;;8.82;;
71771;SDS011;59606;52.138;5.424;2023-12-07T13:54:32;22.33;;;8.07;;
71771;SDS011;59606;52.138;5.424;2023-12-07T13:57:18;25.83;;;8.88;;
71771;SDS011;59606;52.138;5.424;2023-12-07T13:59:53;25.50;;;9.40;;
71771;SDS011;59606;52.138;5.424;2023-12-07T14:02:21;27.30;;;9.43;;
71771;SDS011;59606;52.138;5.424;2023-12-07T14:04:47;21.90;;;9.10;;
71771;SDS011;59606;52.138;5.424;2023-12-07T14:07:17;24.52;;;9.02;;
71771;SDS011;59606;52.138;5.424;2023-12-07T14:09:45;24.33;;;9.68;;
71771;SDS011;59606;52.138;5.424;2023-12-07T14:12:24;26.98;;;10.82;;
71771;SDS011;59606;52.138;5.424;2023-12-07T14:14:51;23.83;;;10.00;;
71771;SDS011;59606;52.138;5.424;2023-12-07T14:17:18;24.55;;;9.73;;
71771;SDS011;59606;52.138;5.424;2023-12-07T14:19:46;26.67;;;10.27;;
71771;SDS011;59606;52.138;5.424;2023-12-07T14:22:16;22.52;;;8.90;;
71771;SDS011;59606;52.138;5.424;2023-12-07T14:24:44;26.95;;;10.93;;
71771;SDS011;59606;52.138;5.424;2023-12-07T14:27:12;24.10;;;10.30;;
71771;SDS011;59606;52.138;5.424;2023-12-07T14:29:39;28.08;;;10.75;;
71771;SDS011;59606;52.138;5.424;2023-12-07T14:32:05;26.75;;;10.30;;
71771;SDS011;59606;52.138;5.424;2023-12-07T14:34:32;30.25;;;11.02;;
71771;SDS011;59606;52.138;5.424;2023-12-07T14:37:02;27.88;;;10.23;;
71771;SDS011;59606;52.138;5.424;2023-12-07T14:39:33;29.80;;;10.17;;
71771;SDS011;59606;52.138;5.424;2023-12-07T14:42:01;22.52;;;9.98;;
71771;SDS011;59606;52.138;5.424;2023-12-07T14:44:29;28.13;;;11.63;;
71771;SDS011;59606;52.138;5.424;2023-12-07T14:46:55;28.98;;;10.25;;
71771;SDS011;59606;52.138;5.424;2023-12-07T14:49:23;30.52;;;10.57;;
71771;SDS011;59606;52.138;5.424;2023-12-07T14:51:50;25.43;;;10.47;;
71771;SDS011;59606;52.138;5.424;2023-12-07T14:54:17;26.40;;;9.25;;